Time;durP1;ratioP1;P1;durP2;ratioP2;P2;SDS_P1;SDS_P2;PMS_P1;PMS_P2;Temp;Humidity;BMP_temperature;BMP_pressure;BME280_temperature;BME280_humidity;BME280_pressure;Samples;Min_cycle;Max_cycle;Signal;HPM_P1;HPM_P2
2023/06/15 00:00:47;;;;;;;4.27;3.93;;;20.60;59.70;;;;;;5000565;28;21043;-73
2023/06/15 00:03:13;;;;;;;4.03;3.67;;;20.60;59.80;;;;;;4998524;28;20544;-73
2023/06/15 00:05:39;;;;;;;5.50;3.67;;;20.60;59.80;;;;;;5006273;28;20476;-73
2023/06/15 00:08:05;;;;;;;3.70;3.40;;;20.60;59.80;;;;;;4988650;28;20519;-75
2023/06/15 00:10:31;;;;;;;3.20;3.00;;;20.60;60.00;;;;;;5001082;28;20538;-71
2023/06/15 00:12:56;;;;;;;3.10;2.90;;;20.50;60.20;;;;;;5010961;28;20218;-74
2023/06/15 00:15:22;;;;;;;3.53;3.23;;;20.40;60.40;;;;;;5007810;28;20218;-74
2023/06/15 00:17:49;;;;;;;3.50;3.30;;;20.40;60.60;;;;;;5010130;28;20656;-72
2023/06/15 00:20:15;;;;;;;3.77;3.47;;;20.30;60.80;;;;;;4998502;28;20316;-74
2023/06/15 00:22:45;;;;;;;3.27;3.07;;;20.30;60.90;;;;;;5004329;28;20560;-75
2023/06/15 00:25:11;;;;;;;4.40;4.00;;;20.30;60.90;;;;;;5009467;28;20214;-74
2023/06/15 00:27:37;;;;;;;3.50;3.20;;;20.30;61.00;;;;;;4992857;28;20861;-75
2023/06/15 00:30:04;;;;;;;3.53;3.20;;;20.30;61.10;;;;;;5006753;28;20225;-74
2023/06/15 00:32:30;;;;;;;3.60;3.40;;;20.30;61.10;;;;;;4992155;28;20448;-73
2023/06/15 00:34:56;;;;;;;3.43;3.13;;;20.20;61.30;;;;;;5003641;28;20963;-74
2023/06/15 00:37:22;;;;;;;3.57;3.07;;;20.10;61.50;;;;;;5006243;28;20209;-74
2023/06/15 00:39:47;;;;;;;4.90;3.73;;;20.10;61.60;;;;;;5006535;28;20293;-75
2023/06/15 00:42:13;;;;;;;3.80;3.50;;;20.10;61.60;;;;;;5000462;28;20699;-74
2023/06/15 00:44:39;;;;;;;3.17;2.97;;;20.10;61.70;;;;;;4995663;28;20225;-74
2023/06/15 00:47:05;;;;;;;3.57;3.10;;;20.10;61.60;;;;;;5006527;28;20218;-73
2023/06/15 00:49:32;;;;;;;3.83;3.43;;;20.10;61.60;;;;;;4991881;28;20230;-73
2023/06/15 00:52:00;;;;;;;5.33;3.37;;;20.00;61.80;;;;;;4991013;28;20453;-74
2023/06/15 00:54:27;;;;;;;3.47;3.23;;;20.00;62.30;;;;;;4992208;28;20452;-73
2023/06/15 00:56:53;;;;;;;4.10;3.80;;;19.90;62.20;;;;;;5007468;28;20477;-74
2023/06/15 00:59:19;;;;;;;3.70;3.40;;;19.90;62.30;;;;;;5006165;28;20460;-75
2023/06/15 01:01:47;;;;;;;2.97;2.67;;;19.90;62.30;;;;;;5008026;28;20469;-75
2023/06/15 01:04:16;;;;;;;3.73;3.43;;;20.00;62.10;;;;;;5004972;28;20473;-75
2023/06/15 01:06:51;;;;;;;3.90;3.40;;;19.90;62.00;;;;;;5004221;28;20452;-73
2023/06/15 01:09:20;;;;;;;3.90;3.40;;;19.90;62.30;;;;;;5023415;28;20461;-73
2023/06/15 01:11:52;;;;;;;3.60;3.40;;;19.90;62.00;;;;;;4998365;28;20559;-74
2023/06/15 01:14:20;;;;;;;3.83;3.53;;;19.90;62.40;;;;;;5006083;28;20538;-74
2023/06/15 01:16:52;;;;;;;3.30;3.10;;;19.80;62.30;;;;;;4987337;28;20650;-74
2023/06/15 01:19:57;;;;;;;3.40;3.10;;;19.90;61.90;;;;;;5010318;28;20481;-72
2023/06/15 01:22:35;;;;;;;3.63;3.33;;;19.80;62.50;;;;;;5005943;28;20530;-75
2023/06/15 01:25:12;;;;;;;7.30;3.33;;;19.70;62.60;;;;;;5002787;28;20461;-75
2023/06/15 01:27:40;;;;;;;4.10;3.60;;;19.70;63.20;;;;;;5000649;28;20473;-74
2023/06/15 01:30:07;;;;;;;3.40;3.10;;;19.70;63.00;;;;;;5009181;28;20455;-74
2023/06/15 01:32:34;;;;;;;3.23;3.00;;;19.70;62.70;;;;;;5006792;28;21047;-75
2023/06/15 01:35:00;;;;;;;3.37;2.83;;;19.80;62.70;;;;;;5005720;28;20450;-74
2023/06/15 01:37:26;;;;;;;3.50;3.20;;;19.70;63.00;;;;;;4982908;28;20456;-72
2023/06/15 01:39:52;;;;;;;4.33;3.00;;;19.70;63.10;;;;;;5005192;28;20456;-74
2023/06/15 01:42:18;;;;;;;3.90;3.60;;;19.60;63.20;;;;;;5019064;28;20264;-74
2023/06/15 01:44:44;;;;;;;3.20;3.00;;;19.60;63.70;;;;;;4997702;28;20755;-75
2023/06/15 01:47:11;;;;;;;3.37;3.13;;;19.50;64.00;;;;;;5012970;28;20510;-74
2023/06/15 01:49:38;;;;;;;3.43;3.13;;;19.40;64.70;;;;;;5001218;28;20449;-75
2023/06/15 01:52:05;;;;;;;3.53;3.23;;;19.40;64.90;;;;;;4999627;28;20466;-74
2023/06/15 01:54:30;;;;;;;3.67;3.37;;;19.40;64.40;;;;;;4964830;28;20449;-74
2023/06/15 01:56:56;;;;;;;3.40;3.00;;;19.30;65.40;;;;;;4996419;28;21040;-74
2023/06/15 01:59:22;;;;;;;5.47;4.17;;;19.30;65.60;;;;;;5000343;28;20210;-74
2023/06/15 02:01:48;;;;;;;3.77;3.37;;;19.20;65.30;;;;;;4999797;28;20209;-74
2023/06/15 02:04:13;;;;;;;3.60;3.30;;;19.20;65.90;;;;;;4994252;28;20622;-74
2023/06/15 02:06:39;;;;;;;4.03;3.40;;;19.20;65.80;;;;;;5027083;28;20228;-75
2023/06/15 02:09:05;;;;;;;3.63;3.30;;;19.20;65.80;;;;;;5021412;28;20221;-75
2023/06/15 02:11:31;;;;;;;4.63;3.77;;;19.20;65.80;;;;;;4999118;28;20213;-75
2023/06/15 02:13:59;;;;;;;3.57;3.27;;;19.20;65.90;;;;;;4994316;28;20301;-74
2023/06/15 02:16:26;;;;;;;3.67;3.37;;;19.10;66.80;;;;;;4993242;28;20220;-74
2023/06/15 02:18:52;;;;;;;3.83;3.53;;;19.10;65.60;;;;;;4983419;28;20532;-74
2023/06/15 02:21:18;;;;;;;10.10;3.20;;;19.10;66.10;;;;;;5010552;28;20679;-74
2023/06/15 02:23:44;;;;;;;3.40;3.10;;;19.10;66.00;;;;;;5013628;28;20229;-75
2023/06/15 02:26:09;;;;;;;3.63;3.33;;;19.10;65.70;;;;;;5011567;28;20441;-75
2023/06/15 02:28:36;;;;;;;3.50;3.20;;;19.10;65.70;;;;;;5011219;28;20244;-74
2023/06/15 02:31:02;;;;;;;2.90;2.70;;;19.10;65.40;;;;;;5008490;28;20560;-73
2023/06/15 02:33:31;;;;;;;4.30;3.27;;;19.10;65.70;;;;;;5014640;28;20532;-74
2023/06/15 02:35:56;;;;;;;7.47;5.97;;;19.00;66.10;;;;;;5008625;28;20536;-74
2023/06/15 02:38:22;;;;;;;3.13;2.93;;;19.00;66.30;;;;;;5007622;28;20277;-74
2023/06/15 02:40:48;;;;;;;4.00;3.30;;;19.00;66.20;;;;;;5008354;28;20222;-75
2023/06/15 02:43:15;;;;;;;4.50;3.73;;;18.90;66.30;;;;;;5012888;28;20240;-75
2023/06/15 02:45:40;;;;;;;3.87;3.47;;;18.90;66.10;;;;;;5008587;28;20301;-70
2023/06/15 02:48:06;;;;;;;3.53;3.23;;;18.90;66.10;;;;;;5002984;28;20541;-75
2023/06/15 02:50:32;;;;;;;4.20;3.27;;;18.80;66.50;;;;;;4992490;28;20662;-73
2023/06/15 02:53:12;;;;;;;3.27;3.07;;;18.90;66.30;;;;;;5007243;28;20228;-73
2023/06/15 02:55:38;;;;;;;6.17;3.53;;;18.90;65.60;;;;;;5008334;28;20484;-75
2023/06/15 02:58:03;;;;;;;3.73;3.43;;;19.00;65.80;;;;;;5005380;28;20970;-75
2023/06/15 03:00:49;;;;;;;3.90;3.40;;;18.90;65.30;;;;;;5009111;28;20519;-72
2023/06/15 03:03:27;;;;;;;3.33;3.03;;;18.80;65.50;;;;;;4999315;28;20474;-73
2023/06/15 03:05:56;;;;;;;3.30;3.10;;;18.90;65.80;;;;;;4992392;28;20544;-73
2023/06/15 03:08:31;;;;;;;3.93;3.50;;;18.90;65.90;;;;;;5006203;28;20464;-74
2023/06/15 03:11:06;;;;;;;4.20;3.23;;;19.00;65.40;;;;;;5006647;28;20453;-74
2023/06/15 03:13:32;;;;;;;3.70;3.40;;;19.00;65.40;;;;;;4985157;28;20502;-74
2023/06/15 03:16:00;;;;;;;3.43;3.13;;;18.90;65.70;;;;;;5005380;28;20966;-73
2023/06/15 03:18:28;;;;;;;3.23;2.90;;;18.90;65.30;;;;;;5004126;28;20237;-73
2023/06/15 03:20:53;;;;;;;4.40;4.00;;;18.90;65.50;;;;;;5000225;28;20475;-74
2023/06/15 03:23:19;;;;;;;3.40;3.10;;;18.90;66.20;;;;;;5006677;28;20461;-74
2023/06/15 03:25:46;;;;;;;4.30;3.43;;;18.80;65.90;;;;;;5009503;28;20453;-74
2023/06/15 03:28:13;;;;;;;4.10;3.70;;;18.80;65.20;;;;;;5006348;28;20499;-73
2023/06/15 03:30:40;;;;;;;4.30;3.80;;;18.70;65.40;;;;;;5013295;28;20447;-74
2023/06/15 03:33:09;;;;;;;4.03;3.20;;;18.70;66.10;;;;;;4989529;28;20456;-72
2023/06/15 03:35:35;;;;;;;3.30;3.00;;;18.70;65.80;;;;;;5000368;28;20491;-74
2023/06/15 03:38:01;;;;;;;5.00;3.13;;;18.80;65.70;;;;;;4996318;28;20528;-73
2023/06/15 03:40:29;;;;;;;3.50;3.30;;;18.80;66.30;;;;;;4986541;28;20218;-73
2023/06/15 03:42:55;;;;;;;3.27;3.07;;;18.70;65.90;;;;;;5010311;28;20573;-74
2023/06/15 03:45:21;;;;;;;3.47;3.20;;;18.60;66.50;;;;;;4997975;28;20978;-72
2023/06/15 03:47:49;;;;;;;2.90;2.63;;;18.60;66.30;;;;;;5007977;28;20218;-74
2023/06/15 03:50:15;;;;;;;5.00;3.40;;;18.70;66.10;;;;;;4988760;28;20474;-74
2023/06/15 03:52:41;;;;;;;3.30;3.07;;;18.70;66.40;;;;;;4991350;28;20221;-73
2023/06/15 03:55:07;;;;;;;3.57;3.20;;;18.70;66.20;;;;;;4992934;28;20475;-74
2023/06/15 03:57:33;;;;;;;3.20;3.00;;;18.70;66.10;;;;;;5019864;28;20221;-74
2023/06/15 03:59:59;;;;;;;3.10;2.80;;;18.60;66.40;;;;;;4990093;28;20456;-73
2023/06/15 04:02:25;;;;;;;3.33;3.03;;;18.70;66.40;;;;;;4987785;28;21105;-73
2023/06/15 04:04:52;;;;;;;4.00;3.63;;;18.70;66.10;;;;;;4988961;28;20540;-73
2023/06/15 04:07:19;;;;;;;3.40;2.97;;;18.70;66.30;;;;;;5004993;28;20730;-74
2023/06/15 04:09:45;;;;;;;6.40;3.43;;;18.70;66.40;;;;;;4990086;28;20463;-74
2023/06/15 04:12:11;;;;;;;3.10;2.90;;;18.70;66.80;;;;;;4989225;28;20442;-74
2023/06/15 04:14:37;;;;;;;4.30;3.90;;;18.70;66.60;;;;;;4997120;28;20458;-73
2023/06/15 04:17:04;;;;;;;5.40;3.37;;;18.80;66.70;;;;;;4990566;28;20229;-73
2023/06/15 04:19:30;;;;;;;3.80;3.40;;;18.80;66.10;;;;;;4982998;28;20213;-74
2023/06/15 04:21:56;;;;;;;3.53;3.23;;;18.80;66.40;;;;;;5007041;28;20950;-74
2023/06/15 04:24:21;;;;;;;5.27;3.60;;;18.80;66.20;;;;;;4989886;28;20476;-74
2023/06/15 04:26:47;;;;;;;4.37;3.57;;;18.80;66.30;;;;;;5007197;28;20213;-74
2023/06/15 04:29:18;;;;;;;3.53;3.23;;;18.80;66.70;;;;;;5004817;28;20228;-73
2023/06/15 04:31:44;;;;;;;4.00;3.37;;;18.80;66.10;;;;;;4998746;28;20487;-74
2023/06/15 04:34:11;;;;;;;4.40;3.37;;;18.80;67.30;;;;;;5004972;28;20445;-75
2023/06/15 04:36:39;;;;;;;3.80;3.50;;;18.70;68.30;;;;;;4989297;28;20453;-74
2023/06/15 04:39:05;;;;;;;3.97;3.67;;;18.70;68.40;;;;;;4989682;28;20476;-73
2023/06/15 04:41:31;;;;;;;4.20;3.80;;;18.70;68.90;;;;;;4991023;28;20499;-75
2023/06/15 04:44:02;;;;;;;3.50;3.20;;;18.70;70.00;;;;;;5006444;28;20460;-74
2023/06/15 04:46:27;;;;;;;3.50;3.20;;;18.70;70.30;;;;;;4986534;28;20472;-74
2023/06/15 04:48:56;;;;;;;3.63;3.40;;;18.70;70.20;;;;;;5006088;28;20244;-74
2023/06/15 04:51:21;;;;;;;3.70;3.40;;;18.80;70.70;;;;;;4985835;28;20222;-75
2023/06/15 04:53:48;;;;;;;3.90;3.60;;;18.80;70.30;;;;;;5001470;28;20448;-73
2023/06/15 04:56:13;;;;;;;3.60;3.30;;;18.80;70.60;;;;;;4997376;28;20461;-74
2023/06/15 04:58:40;;;;;;;5.20;3.60;;;18.80;70.40;;;;;;5004578;28;20237;-75
2023/06/15 05:01:06;;;;;;;3.77;3.47;;;18.80;71.30;;;;;;5002280;28;20538;-76
2023/06/15 05:03:33;;;;;;;4.10;3.80;;;18.90;71.30;;;;;;5005599;28;20257;-74
2023/06/15 05:05:59;;;;;;;3.50;3.20;;;18.90;71.50;;;;;;5009350;28;20471;-74
2023/06/15 05:08:24;;;;;;;4.07;3.37;;;19.00;71.90;;;;;;4991824;28;20539;-74
2023/06/15 05:10:51;;;;;;;4.00;3.70;;;19.00;71.30;;;;;;4980951;28;20226;-74
2023/06/15 05:13:20;;;;;;;3.97;3.60;;;19.00;71.70;;;;;;4992878;28;20539;-74
2023/06/15 05:15:48;;;;;;;5.00;3.40;;;19.10;71.30;;;;;;4991357;28;20568;-74
2023/06/15 05:18:15;;;;;;;3.70;3.20;;;19.10;72.00;;;;;;4992167;28;20556;-74
2023/06/15 05:20:41;;;;;;;3.30;3.00;;;19.10;72.40;;;;;;5008534;28;20549;-74
2023/06/15 05:23:07;;;;;;;3.40;3.10;;;19.20;73.10;;;;;;4992175;28;20288;-74
2023/06/15 05:25:33;;;;;;;3.50;3.20;;;19.20;72.90;;;;;;5009916;28;20453;-74
2023/06/15 05:27:59;;;;;;;3.30;3.03;;;19.20;73.10;;;;;;5009936;28;20452;-74
2023/06/15 05:30:26;;;;;;;3.60;3.30;;;19.20;73.50;;;;;;5008747;28;21172;-74
2023/06/15 05:32:55;;;;;;;7.93;3.77;;;19.30;73.30;;;;;;4994485;28;20233;-74
2023/06/15 05:35:21;;;;;;;3.60;3.30;;;19.30;73.60;;;;;;4986563;28;21853;-74
2023/06/15 05:37:48;;;;;;;3.60;3.30;;;19.30;73.60;;;;;;5006804;28;20483;-74
2023/06/15 05:40:14;;;;;;;3.83;3.53;;;19.40;73.80;;;;;;5005748;28;20450;-74
2023/06/15 05:42:40;;;;;;;3.57;3.27;;;19.40;73.80;;;;;;4990245;28;20823;-74
2023/06/15 05:45:07;;;;;;;3.90;3.23;;;19.50;73.60;;;;;;4989165;28;20499;-76
2023/06/15 05:47:34;;;;;;;4.00;3.70;;;19.60;74.30;;;;;;4988905;28;20453;-75
2023/06/15 05:50:01;;;;;;;4.37;3.73;;;19.60;73.60;;;;;;4990994;28;20464;-74
2023/06/15 05:52:28;;;;;;;3.60;3.30;;;19.60;73.80;;;;;;5007189;28;20445;-75
2023/06/15 05:54:54;;;;;;;4.50;3.80;;;19.70;74.60;;;;;;4992824;28;20861;-76
2023/06/15 05:57:19;;;;;;;4.10;3.70;;;19.80;74.70;;;;;;4992166;28;20202;-73
2023/06/15 05:59:46;;;;;;;3.87;3.53;;;19.90;74.90;;;;;;4991906;28;20218;-74
2023/06/15 06:02:12;;;;;;;3.57;3.27;;;19.90;74.50;;;;;;4987613;28;20243;-73
2023/06/15 06:04:38;;;;;;;4.40;3.93;;;20.00;75.30;;;;;;5004574;28;20465;-75
2023/06/15 06:07:06;;;;;;;4.37;3.90;;;20.10;74.80;;;;;;4987594;28;20220;-72
2023/06/15 06:09:34;;;;;;;4.33;4.03;;;20.10;74.90;;;;;;4988299;28;20226;-74
2023/06/15 06:12:01;;;;;;;5.43;3.23;;;20.10;75.20;;;;;;5005020;28;20458;-75
2023/06/15 06:14:28;;;;;;;3.63;3.30;;;20.20;75.60;;;;;;5004550;28;20452;-74
2023/06/15 06:16:55;;;;;;;5.40;3.30;;;20.20;73.90;;;;;;4988726;28;21146;-75
2023/06/15 06:19:25;;;;;;;3.90;3.60;;;20.30;74.90;;;;;;5009126;28;20461;-75
2023/06/15 06:21:51;;;;;;;3.73;3.43;;;20.40;74.80;;;;;;4984547;28;20904;-75
2023/06/15 06:24:17;;;;;;;4.17;3.77;;;20.50;74.80;;;;;;5001708;28;20472;-75
2023/06/15 06:26:45;;;;;;;5.80;3.87;;;20.50;74.50;;;;;;4991785;28;20459;-74
2023/06/15 06:29:11;;;;;;;4.00;3.70;;;20.60;74.90;;;;;;4996023;28;20776;-75
2023/06/15 06:31:37;;;;;;;4.17;3.77;;;20.70;74.30;;;;;;5000693;28;20705;-73
2023/06/15 06:34:02;;;;;;;6.90;3.60;;;20.70;73.80;;;;;;5005074;28;20213;-75
2023/06/15 06:36:28;;;;;;;4.10;3.70;;;20.80;73.70;;;;;;5005077;28;20300;-74
2023/06/15 06:38:54;;;;;;;3.93;3.53;;;20.70;74.10;;;;;;4986457;28;20305;-74
2023/06/15 06:41:20;;;;;;;4.60;3.70;;;20.90;73.70;;;;;;4998757;28;20218;-73
2023/06/15 06:43:46;;;;;;;3.97;3.67;;;21.00;73.40;;;;;;5004691;28;20467;-75
2023/06/15 06:46:13;;;;;;;4.30;3.67;;;21.10;73.00;;;;;;5003931;28;20305;-74
2023/06/15 06:48:39;;;;;;;4.87;4.47;;;21.20;73.40;;;;;;5003728;28;20236;-74
2023/06/15 06:51:04;;;;;;;3.97;3.67;;;21.30;73.00;;;;;;5000600;28;20477;-74
2023/06/15 06:53:30;;;;;;;5.70;4.23;;;21.40;72.40;;;;;;5002183;28;20228;-73
2023/06/15 06:55:56;;;;;;;4.17;3.77;;;21.30;72.90;;;;;;5005022;28;20293;-75
2023/06/15 06:58:21;;;;;;;6.43;4.33;;;21.40;72.50;;;;;;5004455;28;20232;-75
2023/06/15 07:00:47;;;;;;;3.90;3.60;;;21.40;72.30;;;;;;4988063;28;20221;-75
2023/06/15 07:03:13;;;;;;;4.43;4.03;;;21.50;72.70;;;;;;4982676;28;20593;-74
2023/06/15 07:05:38;;;;;;;3.83;3.53;;;21.70;72.40;;;;;;5002739;28;20240;-74
2023/06/15 07:08:04;;;;;;;6.57;4.53;;;21.60;72.20;;;;;;5003623;28;20296;-74
2023/06/15 07:10:30;;;;;;;4.17;3.77;;;21.70;72.60;;;;;;4987832;28;20221;-75
2023/06/15 07:12:56;;;;;;;4.63;4.27;;;21.80;72.30;;;;;;5005608;28;20226;-75
2023/06/15 07:15:23;;;;;;;4.03;3.60;;;21.90;72.10;;;;;;5004228;28;20684;-74
2023/06/15 07:17:49;;;;;;;5.27;4.63;;;21.90;71.70;;;;;;4983817;28;20460;-75
2023/06/15 07:20:15;;;;;;;6.73;4.90;;;21.70;71.50;;;;;;4998724;28;20467;-75
2023/06/15 07:22:43;;;;;;;5.53;4.00;;;21.70;71.60;;;;;;5004770;28;20460;-75
2023/06/15 07:25:08;;;;;;;4.67;4.30;;;22.00;71.50;;;;;;4985822;28;20213;-75
2023/06/15 07:27:34;;;;;;;4.90;4.40;;;22.20;71.30;;;;;;5004085;28;20837;-76
2023/06/15 07:30:00;;;;;;;4.90;4.50;;;22.20;71.80;;;;;;5002668;28;20287;-75
2023/06/15 07:32:25;;;;;;;4.47;4.07;;;22.50;71.70;;;;;;5004791;28;20224;-75
2023/06/15 07:34:51;;;;;;;5.10;4.70;;;22.40;70.40;;;;;;4997481;28;20283;-75
2023/06/15 07:37:17;;;;;;;4.50;4.10;;;22.40;71.30;;;;;;4993816;28;20209;-75
2023/06/15 07:39:43;;;;;;;4.90;4.50;;;22.60;70.90;;;;;;5003960;28;20275;-75
2023/06/15 07:42:08;;;;;;;4.20;3.90;;;22.60;70.60;;;;;;4988603;28;20216;-75
2023/06/15 07:44:35;;;;;;;4.60;4.20;;;22.70;70.20;;;;;;4986235;28;20229;-75
2023/06/15 07:47:01;;;;;;;4.80;4.40;;;22.80;69.70;;;;;;4979871;28;20221;-76
2023/06/15 07:49:27;;;;;;;4.57;4.17;;;23.00;69.80;;;;;;4987139;28;20460;-75
2023/06/15 07:51:52;;;;;;;4.23;3.57;;;22.90;69.30;;;;;;5004219;28;20472;-76
2023/06/15 07:54:18;;;;;;;4.20;3.90;;;22.90;69.80;;;;;;4997923;28;20248;-75
2023/06/15 07:56:45;;;;;;;4.47;4.07;;;22.90;70.30;;;;;;5001993;28;20217;-74
2023/06/15 07:59:11;;;;;;;4.33;4.03;;;22.90;71.00;;;;;;5003697;28;20330;-75
2023/06/15 08:01:37;;;;;;;7.87;4.07;;;23.10;69.50;;;;;;5004237;28;20521;-73
2023/06/15 08:04:03;;;;;;;4.37;3.97;;;23.20;69.40;;;;;;5004515;28;20468;-76
2023/06/15 08:06:29;;;;;;;4.77;4.37;;;23.20;68.70;;;;;;4988220;28;20592;-75
2023/06/15 08:08:55;;;;;;;4.17;3.77;;;22.90;68.50;;;;;;4987641;28;20465;-75
2023/06/15 08:11:20;;;;;;;4.63;4.17;;;23.10;69.30;;;;;;4987395;28;20352;-74
2023/06/15 08:13:46;;;;;;;4.70;4.20;;;23.20;68.70;;;;;;4985363;28;20552;-75
2023/06/15 08:16:12;;;;;;;4.93;4.50;;;23.10;69.20;;;;;;5001410;28;20249;-75
2023/06/15 08:18:38;;;;;;;4.53;4.23;;;23.30;68.70;;;;;;5005509;28;20216;-76
2023/06/15 08:21:03;;;;;;;5.70;4.20;;;23.40;68.10;;;;;;4999922;28;20217;-75
2023/06/15 08:23:29;;;;;;;4.37;4.07;;;23.60;68.30;;;;;;5004300;28;20229;-75
2023/06/15 08:25:55;;;;;;;4.97;4.57;;;23.70;68.50;;;;;;4996626;28;20233;-76
2023/06/15 08:28:21;;;;;;;4.30;4.00;;;23.70;67.20;;;;;;4998265;28;20221;-75
2023/06/15 08:30:47;;;;;;;7.23;4.40;;;23.70;67.50;;;;;;5002809;28;20328;-74
2023/06/15 08:33:13;;;;;;;4.20;3.90;;;23.90;67.20;;;;;;5001194;28;20214;-75
2023/06/15 08:35:38;;;;;;;4.70;4.33;;;23.90;66.90;;;;;;4986609;28;20288;-75
2023/06/15 08:38:04;;;;;;;4.30;4.00;;;23.90;66.80;;;;;;5004921;28;20356;-75
2023/06/15 08:40:30;;;;;;;4.90;4.53;;;23.90;67.60;;;;;;5001790;28;20228;-75
2023/06/15 08:42:58;;;;;;;4.30;4.00;;;24.20;66.90;;;;;;4982796;28;20851;-75
2023/06/15 08:45:30;;;;;;;4.73;4.33;;;24.30;66.20;;;;;;4989415;28;20218;-75
2023/06/15 08:47:58;;;;;;;6.77;4.10;;;24.30;65.30;;;;;;4998449;28;20532;-76
2023/06/15 08:50:24;;;;;;;4.90;4.60;;;24.40;65.20;;;;;;4994029;28;20568;-74
2023/06/15 08:52:50;;;;;;;4.27;3.90;;;24.50;65.10;;;;;;5008445;28;20578;-75
2023/06/15 08:55:18;;;;;;;4.40;3.80;;;24.40;64.50;;;;;;5005323;28;20568;-76
2023/06/15 08:57:44;;;;;;;5.57;5.17;;;24.50;64.60;;;;;;4984780;28;20527;-76
2023/06/15 09:00:10;;;;;;;4.40;4.10;;;24.40;64.10;;;;;;5000287;28;20548;-75
2023/06/15 09:02:46;;;;;;;4.17;3.87;;;24.50;64.20;;;;;;5000845;28;20216;-76
2023/06/15 09:05:12;;;;;;;4.23;3.93;;;24.70;64.30;;;;;;4989313;28;20455;-75
2023/06/15 09:07:38;;;;;;;5.10;4.60;;;24.90;63.90;;;;;;5006846;28;21001;-74
2023/06/15 09:10:11;;;;;;;4.40;4.00;;;24.90;63.50;;;;;;5002212;28;20460;-74
2023/06/15 09:12:44;;;;;;;8.10;3.90;;;24.60;61.60;;;;;;4988973;28;20718;-76
2023/06/15 09:15:16;;;;;;;4.50;4.20;;;24.50;61.90;;;;;;5004053;28;20460;-74
2023/06/15 09:17:41;;;;;;;4.23;3.37;;;24.30;61.60;;;;;;4992116;28;20543;-74
2023/06/15 09:20:08;;;;;;;3.97;3.67;;;24.40;61.70;;;;;;4986053;28;20532;-74
2023/06/15 09:22:45;;;;;;;4.07;3.60;;;24.20;61.00;;;;;;5020475;28;20222;-74
2023/06/15 09:25:19;;;;;;;4.17;3.80;;;24.30;61.40;;;;;;5005236;28;20501;-75
2023/06/15 09:27:57;;;;;;;3.90;3.60;;;24.60;60.50;;;;;;5003824;28;20444;-76
2023/06/15 09:30:31;;;;;;;4.10;3.70;;;24.70;59.90;;;;;;5004302;28;20526;-75
2023/06/15 09:32:58;;;;;;;4.13;3.83;;;24.80;60.00;;;;;;5004100;28;20458;-76
2023/06/15 09:35:24;;;;;;;4.37;3.40;;;25.20;59.70;;;;;;5000672;28;20483;-73
2023/06/15 09:37:55;;;;;;;3.80;3.60;;;25.50;59.60;;;;;;5007811;28;20978;-75
2023/06/15 09:40:25;;;;;;;4.00;3.70;;;25.60;59.40;;;;;;4984640;28;20217;-76
2023/06/15 09:42:53;;;;;;;3.93;3.63;;;25.80;59.30;;;;;;5003734;28;20974;-74
2023/06/15 09:45:19;;;;;;;5.47;3.60;;;25.80;59.40;;;;;;4988474;28;20464;-73
2023/06/15 09:47:45;;;;;;;3.97;3.67;;;25.70;59.10;;;;;;4985560;28;21012;-76
2023/06/15 09:50:11;;;;;;;4.37;4.07;;;25.60;58.10;;;;;;5004423;28;20469;-75
2023/06/15 09:52:42;;;;;;;3.70;3.40;;;25.40;58.00;;;;;;5003210;28;20466;-75
2023/06/15 09:55:09;;;;;;;3.60;3.30;;;25.10;58.50;;;;;;5000037;28;20736;-75
2023/06/15 09:57:35;;;;;;;3.63;3.33;;;25.40;58.50;;;;;;4986480;28;20492;-75
2023/06/15 10:00:02;;;;;;;3.87;3.57;;;25.60;58.00;;;;;;4982260;28;20604;-76
2023/06/15 10:02:39;;;;;;;3.77;3.47;;;25.90;58.00;;;;;;5002712;28;20551;-76
2023/06/15 10:05:15;;;;;;;3.67;3.40;;;26.00;57.40;;;;;;4985275;28;21034;-75
2023/06/15 10:07:46;;;;;;;3.87;3.47;;;26.40;57.00;;;;;;4986504;28;20444;-77
2023/06/15 10:10:14;;;;;;;3.80;3.50;;;26.50;56.70;;;;;;5006313;28;20463;-76
2023/06/15 10:12:45;;;;;;;3.83;3.53;;;26.50;56.70;;;;;;5003628;28;20521;-74
2023/06/15 10:15:14;;;;;;;4.50;4.10;;;26.70;56.80;;;;;;4992586;28;20229;-75
2023/06/15 10:17:42;;;;;;;4.10;3.80;;;26.60;56.80;;;;;;4991807;28;20460;-75
2023/06/15 10:20:16;;;;;;;4.60;4.20;;;26.50;56.80;;;;;;5007008;28;20464;-75
2023/06/15 10:22:56;;;;;;;4.20;3.80;;;26.50;56.80;;;;;;4986455;28;20459;-75
2023/06/15 10:25:23;;;;;;;4.07;3.77;;;26.60;56.90;;;;;;5007690;28;20463;-74
2023/06/15 10:27:49;;;;;;;6.03;4.40;;;26.60;57.10;;;;;;5008181;28;20592;-75
2023/06/15 10:30:57;;;;;;;4.00;3.70;;;26.30;56.50;;;;;;5007664;28;20515;-74
2023/06/15 10:33:37;;;;;;;4.30;3.87;;;26.20;56.70;;;;;;4951159;28;20301;-76
2023/06/15 10:36:08;;;;;;;4.43;4.03;;;26.50;56.60;;;;;;5005562;28;20510;-74
2023/06/15 10:39:03;;;;;;;5.03;4.53;;;26.70;56.60;;;;;;5029287;28;20468;-76
2023/06/15 10:41:29;;;;;;;4.23;3.93;;;27.00;56.80;;;;;;5006294;28;20226;-76
2023/06/15 10:43:58;;;;;;;5.40;3.90;;;27.20;56.80;;;;;;5007513;28;20885;-76
2023/06/15 10:46:35;;;;;;;4.37;3.97;;;27.10;56.90;;;;;;4990263;28;20687;-77
2023/06/15 10:49:05;;;;;;;4.30;4.00;;;27.00;57.10;;;;;;4991548;28;20487;-74
2023/06/15 10:51:35;;;;;;;4.87;4.47;;;26.50;57.10;;;;;;5005449;28;20220;-74
2023/06/15 10:54:05;;;;;;;6.60;4.17;;;26.40;57.00;;;;;;5007269;28;20213;-74
2023/06/15 10:56:31;;;;;;;5.00;4.60;;;26.20;57.20;;;;;;4990389;28;20302;-75
2023/06/15 10:59:05;;;;;;;6.00;4.73;;;26.10;57.80;;;;;;5007671;28;20953;-75
2023/06/15 11:01:32;;;;;;;4.70;4.33;;;26.60;57.80;;;;;;5005852;28;20224;-75
2023/06/15 11:04:18;;;;;;;4.27;3.97;;;26.80;57.30;;;;;;5006362;28;20510;-74
2023/06/15 11:06:55;;;;;;;4.57;4.17;;;27.00;56.90;;;;;;5003914;28;20451;-75
2023/06/15 11:09:24;;;;;;;4.87;4.47;;;27.50;56.60;;;;;;5007562;28;20274;-75
2023/06/15 11:11:50;;;;;;;6.43;4.70;;;27.40;56.00;;;;;;5007898;28;20209;-75
2023/06/15 11:14:19;;;;;;;4.75;4.38;;;27.50;56.30;;;;;;5006733;28;20596;-75
2023/06/15 11:16:45;;;;;;;4.47;4.17;;;27.70;56.30;;;;;;4991584;28;20224;-73
2023/06/15 11:19:10;;;;;;;4.30;4.00;;;27.90;55.90;;;;;;5006835;28;20221;-76
2023/06/15 11:21:59;;;;;;;5.10;4.60;;;27.90;56.10;;;;;;5008275;28;20225;-76
2023/06/15 11:24:29;;;;;;;4.38;4.07;;;27.80;56.10;;;;;;5006404;28;20311;-76
2023/06/15 11:26:55;;;;;;;4.68;4.28;;;27.80;56.30;;;;;;5008230;28;20216;-74
2023/06/15 11:29:25;;;;;;;4.32;4.03;;;27.80;55.70;;;;;;5008866;28;20244;-77
2023/06/15 11:31:53;;;;;;;5.47;5.03;;;28.10;55.80;;;;;;5007553;28;20696;-75
2023/06/15 11:34:19;;;;;;;4.35;4.05;;;28.20;55.70;;;;;;4986999;28;20326;-76
2023/06/15 11:36:45;;;;;;;4.90;4.50;;;28.00;55.30;;;;;;5007875;28;20217;-74
2023/06/15 11:39:31;;;;;;;4.53;4.22;;;28.30;55.10;;;;;;5006340;28;20214;-74
2023/06/15 11:41:58;;;;;;;4.28;3.97;;;28.50;55.10;;;;;;4996121;28;20221;-77
2023/06/15 11:44:26;;;;;;;4.93;4.53;;;28.40;55.30;;;;;;5006685;28;20574;-76
2023/06/15 11:46:53;;;;;;;4.90;4.40;;;28.10;55.60;;;;;;5006960;28;20248;-76
2023/06/15 11:49:18;;;;;;;4.97;4.57;;;28.30;55.50;;;;;;5007286;28;20299;-75
2023/06/15 11:51:47;;;;;;;4.70;4.30;;;28.60;55.10;;;;;;5007500;28;20311;-75
2023/06/15 11:54:13;;;;;;;4.57;4.18;;;28.80;55.40;;;;;;5007039;28;20213;-77
2023/06/15 11:56:48;;;;;;;3.60;3.40;;;27.90;54.70;;;;;;5008291;28;20275;-76
2023/06/15 11:59:15;;;;;;;3.53;3.28;;;27.30;54.60;;;;;;5007826;28;20212;-76
2023/06/15 12:01:44;;;;;;;4.20;3.90;;;27.80;54.40;;;;;;5007763;28;20760;-76
2023/06/15 12:04:15;;;;;;;5.43;4.00;;;27.60;54.80;;;;;;5007469;28;20761;-75
2023/06/15 12:06:41;;;;;;;5.00;4.50;;;27.90;55.20;;;;;;5008927;28;20209;-76
2023/06/15 12:09:08;;;;;;;4.13;3.75;;;27.90;55.10;;;;;;5010852;28;20235;-76
2023/06/15 12:11:35;;;;;;;4.10;3.80;;;28.10;54.90;;;;;;4991679;28;20236;-75
2023/06/15 12:14:07;;;;;;;5.38;4.03;;;28.10;54.90;;;;;;5011208;28;20233;-76
2023/06/15 12:16:34;;;;;;;3.83;3.53;;;28.10;54.70;;;;;;4993939;28;20304;-75
2023/06/15 12:19:01;;;;;;;4.60;4.10;;;28.40;54.40;;;;;;5010612;28;20225;-77
2023/06/15 12:21:35;;;;;;;4.88;4.47;;;28.40;54.70;;;;;;5012231;28;20247;-75
2023/06/15 12:24:01;;;;;;;5.57;5.05;;;28.50;54.70;;;;;;4991648;28;20222;-75
2023/06/15 12:26:33;;;;;;;4.57;4.28;;;27.90;54.80;;;;;;5010492;28;20280;-75
2023/06/15 12:29:00;;;;;;;4.47;4.07;;;28.10;54.40;;;;;;5007852;28;20264;-77
2023/06/15 12:31:35;;;;;;;5.82;5.32;;;28.60;54.40;;;;;;4990237;28;20412;-74
2023/06/15 12:34:09;;;;;;;5.15;4.75;;;29.00;54.10;;;;;;5011158;28;20767;-76
2023/06/15 12:36:39;;;;;;;4.47;4.18;;;29.20;54.30;;;;;;5010454;28;20241;-75
2023/06/15 12:39:09;;;;;;;4.63;4.32;;;29.20;54.70;;;;;;4997352;28;20214;-76
2023/06/15 12:41:41;;;;;;;4.45;4.15;;;28.90;54.70;;;;;;5008206;28;20824;-76
2023/06/15 12:44:07;;;;;;;4.32;3.97;;;28.40;54.70;;;;;;5012184;28;20239;-76
2023/06/15 12:46:36;;;;;;;4.38;3.80;;;28.20;54.80;;;;;;5008971;28;20232;-75
2023/06/15 12:49:03;;;;;;;6.07;4.50;;;28.60;55.00;;;;;;5010633;28;20301;-75
2023/06/15 12:51:28;;;;;;;5.10;4.60;;;28.70;54.80;;;;;;5012732;28;20298;-76